Tiempo atmosférico en la estación meteorológica de Córdoba Aeropuerto, Córdoba (90 m.)



Fecha
DESCASC
Temp. máxima en grados centígrados (hora)
DESCASC
Temp. mínima en grados centígrados (hora)
DESCASC
Temp. media en grados centígrados
DESCASC
Racha de viento máxima en m/sg (hora)
DESCASC
Velocidad máxima media en intervalos de 10 minutos(hora)
DESCASC
Precipitaciones diarias en mm
DESCASC
Precipitaciones de 00:00 a 06:00 en mm
DESCASC
Precipitaciones de 06:00 a 12:00 en mm
DESCASC
Precipitaciones de 12:00 a 18:00 en mm
DESCASC
Precipitaciones de 18:00 a 24:00 en mm
DESCASC
08-12-2019 16 (14:30) 3.9 (07:40) 10 -- (--) -- (--) 0 0 0 0 0
07-12-2019 18.4 (16:10) 5.1 (08:40) 11.7 -- (--) -- (--) 0 0 0 0 0
06-12-2019 19.8 (15:10) 7.6 (08:40) 13.7 10.28 (13:30) 7.22 (13:30) 0 0 0 0 0
05-12-2019 -- (--) -- (--) -- -- (--) -- (--) -- 0 0 -- --
04-12-2019 15.7 (15:30) 8.8 (00:00) 12.3 7.22 (18:10) 4.17 (18:20) 1.8 0 1 0 0.8
03-12-2019 17.4 (16:50) 7.9 (00:00) 12.6 8.89 (12:20) 6.39 (12:40) 0 0 0 0 0
02-12-2019 17.7 (15:20) 9.6 (00:00) 13.7 10.28 (14:50) 7.5 (13:40) 6.7 5.8 0.9 0 0
01-12-2019 14.6 (00:00) 10.2 (00:00) 12.4 6.67 (16:40) 4.44 (17:00) 23.2 1.5 0 5.6 16.1
30-11-2019 19.5 (14:30) 8.1 (00:00) 13.8 6.67 (17:10) 4.72 (17:30) 0 0 0 0 0
29-11-2019 19.4 (15:30) 7.6 (00:00) 13.5 4.72 (14:00) 2.78 (14:10) 0 0 0 0 0
28-11-2019 16.1 (16:10) 10.4 (00:00) 13.3 4.17 (10:20) 3.33 (11:30) 0 0 0 0 0
27-11-2019 18.5 (15:10) 11.1 (00:00) 14.8 11.39 (01:10) 6.94 (15:20) 0.1 0.1 0 0 0
26-11-2019 17 (13:30) 13.6 (00:00) 15.3 9.17 (23:20) 6.11 (23:10) 0.6 0 0 0.1 0.5
25-11-2019 14.8 (17:40) 9.4 (00:00) 12.1 3.06 (12:50) 2.22 (14:10) 2.4 0 1.8 0.6 0
24-11-2019 16 (16:30) 4.4 (00:00) 10.2 6.11 (15:10) 4.17 (15:50) 0 0 0 0 0
23-11-2019 16.8 (14:40) 7.9 (00:00) 12.3 12.78 (04:30) 8.33 (04:30) 1.7 1.7 0 0 0
22-11-2019 16.6 (14:40) 12 (00:00) 14.3 18.89 (15:20) 12.22 (15:30) 34.8 1.5 1.5 31.7 0.1
21-11-2019 13.1 (15:40) 9.7 (00:00) 11.4 3.61 (09:40) 2.78 (10:50) 6.2 0.6 1.8 3.8 0
20-11-2019 9.7 (17:30) 3.8 (00:00) 6.7 6.11 (15:40) 4.17 (15:40) 1.9 0 0 0.8 1.1
19-11-2019 14.6 (15:40) 3.4 (00:00) 9 6.11 (11:20) 4.17 (11:40) 0 0 0 0 0
18-11-2019 17.2 (15:50) 5.7 (00:00) 11.5 12.78 (04:50) 6.39 (02:00) 5.8 5.8 0 0 0
17-11-2019 10 (23:59) 0.2 (00:00) 5.1 4.17 (23:50) 2.78 (23:59) 5.6 0 0.9 1.2 3.5
16-11-2019 14.7 (16:10) -1.8 (-00:0) 6.4 7.78 (17:10) 5 (17:00) 0 0 0 0 0
15-11-2019 12.2 (15:50) 3 (00:00) 7.6 7.78 (10:40) 5.28 (11:40) 0 0 0 0 0
14-11-2019 15.9 (16:10) 8.8 (00:00) 12.3 15 (17:10) 9.72 (16:20) 0.6 0 0.6 0 0
13-11-2019 21.8 (16:40) 10.9 (00:00) 16.3 11.39 (13:40) 7.22 (10:20) 0.1 0 0.1 0 0
12-11-2019 19.6 (16:50) 8.5 (00:00) 14.1 7.22 (17:10) 5.28 (17:30) 0 0 0 0 0
11-11-2019 15.4 (16:10) 8.8 (23:59) 12.1 13.33 (01:40) 8.33 (01:30) 0 0 0 0 0

Gráficas

Temp. máximas Temp. mínimas Temp. medias Precipitaciones Rachas de viento máximas Velocidades máximas media en intervalos de 10 minutos

Datos horarios

Fecha y hora oficial Temperatura (ºC) Velocidad del viento (km/h) Dirección del viento Racha (km/h) Dirección de racha Precipitación (mm) Presión (hPa) Tendencia (hPa) Humedad (%)
2019-12-10 23:00:00 6.9 4 Sudoeste 5 Sudoeste 0 1015.5 0.3 89
2019-12-10 22:00:00 7.8 4 Sudoeste 5 Sudoeste 0 1015.3 0.3 88
2019-12-10 21:00:00 9.1 0 Calma 8 Sudoeste 0 1015.2 0.6 83
2019-12-10 20:00:00 10.3 2 Este 4 Este 0 1015.2 0.4 80
2019-12-10 19:00:00 12.4 2 Noroeste 5 Norte 0 1015 0 69
2019-12-10 18:00:00 15.5 -- -- -- -- 0 1014.6 -0.8 52
2019-12-10 17:00:00 19.4 0 Calma 5 Sudoeste 0 1014.8 -1.4 34
2019-12-10 16:00:00 18.8 4 Este 17 Este 0 1015 -2.3 33
2019-12-10 15:00:00 17.8 14 Este 21 Este 0 1015.4 -2.9 36
2019-12-10 14:00:00 17.1 15 Este 28 Este 0 1016.2 -2.2 42
2019-12-10 13:00:00 15.3 12 Este 22 Nordeste 0 1017.3 -0.8 51
2019-12-10 12:00:00 13.2 13 Este 21 Este 0 1018.3 0.4 63
2019-12-10 11:00:00 11.3 12 Este 17 Este 0 1018.4 0.3 73
2019-12-10 10:00:00 9.4 10 Este 15 Este 0 1018.1 -0.3 85
2019-12-10 09:00:00 6.9 8 Sudeste 17 Este 0 1017.9 -0.2 95
2019-12-10 08:00:00 5.5 4 Este 9 Este 0 1018.1 0.1 95
2019-12-10 07:00:00 5.7 2 Este 9 Norte 0 1018.4 -0.1 95
2019-12-10 06:00:00 5.7 3 Nordeste 8 Norte 0 1018.1 -0.5 94
2019-12-10 05:00:00 6.3 4 Norte 8 Este 0 1018 -0.5 94
2019-12-10 04:00:00 6.8 0 Calma 5 Nordeste 0 1018.5 -0.5 93
2019-12-10 03:00:00 8.1 2 Nordeste 5 Norte 0 1018.6 -0.4 94
2019-12-10 02:00:00 8.5 3 Este 8 Nordeste 0 1018.5 -0.2 94
2019-12-10 01:00:00 9 -- -- -- -- 0 1019 0.3 93
2019-12-10 00:00:00 9.6 3 Sudeste 8 Este 0 1019 0.7 93
2019-12-09 23:00:00 10.2 3 Nordeste 8 Sudeste 0 1018.7 0.7 91
2019-12-09 22:00:00 11.1 2 Noroeste 5 Noroeste 0 1018.7 0.7 89
2019-12-09 21:00:00 11.7 4 Sudoeste -- -- 0 1018.3 0.5 89
2019-12-09 20:00:00 12.8 4 Este 5 Este 0 1018 0.4 85
2019-12-09 19:00:00 14.2 0 Calma 5 Oeste 0 1018 0.3 76
2019-12-09 18:00:00 18 0 Calma 5 Sur 0 1017.8 0 59
2019-12-09 17:00:00 18.7 3 Sudeste 11 Sur 0 1017.6 -0.9 55
2019-12-09 16:00:00 18.7 4 Este 13 Sudeste 0 1017.7 -1.8 56
2019-12-09 15:00:00 18.3 5 Sudeste 15 Sudeste 0 1017.8 -2.3 58
2019-12-09 14:00:00 17.7 3 Este 9 Este 0 1018.5 -1.4 61
2019-12-09 13:00:00 16.4 4 Este 9 Nordeste 0 1019.5 0.3 69
2019-12-09 12:00:00 14.1 4 Norte 8 Nordeste 0 1020.1 1.5 77
2019-12-09 11:00:00 13.2 5 Nordeste 9 Nordeste 0 1019.9 1.5 81
2019-12-09 10:00:00 12.4 4 Este 5 Este 0 1019.2 1.6 88
2019-12-09 09:00:00 11.9 0 Calma 5 Nordeste 0 1018.6 1.4 90
2019-12-09 08:00:00 11.8 4 Este 5 Este 0 1018.4 1.2 90
2019-12-09 07:00:00 11.7 5 Nordeste 5 Nordeste 0 1017.6 0.3 90
2019-12-09 06:00:00 11.7 3 Este 4 Este 0 1017.2 0 88
2019-12-09 05:00:00 11.7 0 Calma 8 Este 0 1017.2 0 88
2019-12-09 04:00:00 11.5 5 Nordeste 8 Nordeste 0 1017.3 -0.1 90
2019-12-09 03:00:00 11.4 4 Norte 8 Norte 0 1017.2 -0.1 90
2019-12-09 02:00:00 11.1 0 Calma 8 Sudoeste 0 1017.2 0.7 90
2019-12-09 01:00:00 10.8 2 Sudoeste 9 Sur 0 1017.4 0.9 90
2019-12-09 00:00:00 11.1 5 Sudoeste 13 Norte 0 1017.3 1.3 86
2019-12-08 23:00:00 12 5 Sudoeste 13 Sudoeste 0 1016.5 0.5 84
2019-12-08 22:00:00 11.1 8 Sudoeste 9 Sur 0 1016.5 0.6 87
2019-12-08 21:00:00 11.9 3 Noroeste 5 Norte 0 1016 0.5 85
2019-12-08 20:00:00 12.6 5 Sudoeste -- -- 0 1016 1 83
2019-12-08 19:00:00 13.6 -- -- -- -- 0 1015.9 0.9 75
2019-12-08 18:00:00 14.7 5 Oeste 9 Oeste 0 1015.5 0.6 72
2019-12-08 17:00:00 15.6 6 Sudoeste 11 Sudoeste 0 1015 -0.6 63
2019-12-08 16:00:00 15.7 5 Oeste 9 Oeste 0 1015 -1.4 62
2019-12-08 15:00:00 15.9 3 Sudoeste 8 Sudoeste 0 1014.9 -2.4 60
2019-12-08 14:00:00 14.4 5 Norte 13 Nordeste 0 1015.6 -1.6 65
2019-12-08 13:00:00 13.2 9 Este 17 Este 0 1016.4 -0.9 67
2019-12-08 12:00:00 11.6 10 Este 17 Este 0 1017.3 0.8 74
2019-12-08 11:00:00 9.2 8 Este 15 Este 0 1017.2 1.1 85
2019-12-08 10:00:00 7 9 Sudeste 13 Sudeste 0 1017.3 1.8 95
2019-12-08 09:00:00 4.4 8 Este 9 Este 0 1016.5 1.3 96
2019-12-08 08:00:00 4.2 8 Este 9 Este 0 1016.1 0.9 96
2019-12-08 07:00:00 4.1 2 Este 5 Este 0 1015.5 0.2 96
2019-12-08 06:00:00 4.8 6 Este -- -- 0 1015.2 -0.2 96
2019-12-08 05:00:00 4.6 0 Calma 5 Norte 0 1015.2 -0.2 96
2019-12-08 04:00:00 5.1 4 Norte 5 Norte 0 1015.3 0.1 95
2019-12-08 03:00:00 5.4 0 Calma 4 Sudeste 0 1015.4 0.2 95
2019-12-08 02:00:00 5.9 2 Noroeste 5 Sur 0 1015.4 0.6 95
2019-12-08 01:00:00 6.3 5 Este 9 Nordeste 0 1015.2 0.8 94
2019-12-08 00:00:00 7.1 0 Calma -- -- 0 1015.2 1.1 93
2019-12-07 23:00:00 7.6 6 Oeste 8 Oeste 0 1014.8 1.2 93
2019-12-07 22:00:00 8.6 4 Sur 5 Sur 0 1014.4 1.6 90
2019-12-07 21:00:00 9.7 0 Calma 5 Sur 0 1014.1 1.7 89
2019-12-07 20:00:00 10.8 2 Nordeste 5 Este 0 1013.6 1.6 86
2019-12-07 19:00:00 12.8 0 Calma -- -- 0 1012.8 1.2 74
2019-12-07 18:00:00 16.6 4 Sudoeste 8 Este 0 1012.4 0.9 59
2019-12-07 17:00:00 18.3 4 Este 11 Sudeste 0 1012 -0.1 45
2019-12-07 16:00:00 18.2 7 Este 15 Este 0 1011.6 -1.6 46
2019-12-07 15:00:00 17.7 10 Este 17 Este 0 1011.5 -2.3 50
2019-12-07 14:00:00 16.4 12 Este 21 Este 0 1012.1 -1.9 55
2019-12-07 13:00:00 15.2 14 Este 21 Este 0 1013.2 -0.3 59
2019-12-07 12:00:00 13.2 10 Este 15 Este 0 1013.8 0.8 69
2019-12-07 11:00:00 11 6 Este 11 Este 0 1014 1.5 80
2019-12-07 10:00:00 8.3 4 Nordeste 8 Nordeste 0 1013.5 1.7 94
2019-12-07 09:00:00 5.2 0 Calma 5 Este 0 1013 1.5 96
2019-12-07 08:00:00 5.8 -- -- -- -- 0 1012.5 1 96
2019-12-07 07:00:00 5.4 5 Este -- -- 0 1011.8 0.3 95
2019-12-07 06:00:00 5.7 0 Calma 5 Norte 0 1011.5 0.2 95
2019-12-07 05:00:00 5.9 3 Sur 4 Sur 0 1011.5 0.2 94
2019-12-07 04:00:00 6.5 2 Sudeste 8 Norte 0 1011.5 0.4 94
2019-12-07 03:00:00 6.5 5 Este 8 Este 0 1011.3 0.5 93
2019-12-07 02:00:00 7.1 3 Norte 8 Sur 0 1011.3 1.1 92
2019-12-07 01:00:00 7.8 3 Sur -- -- 0 1011.1 1.2 91
2019-12-07 00:00:00 8.4 0 Calma 8 Sudoeste 0 1010.8 1.3 89
2019-12-06 23:00:00 9.4 5 Nordeste 8 Nordeste 0 1010.2 1 86
2019-12-06 22:00:00 10.1 3 Noroeste 8 Oeste 0 1009.9 1.3 84
2019-12-06 21:00:00 10.4 2 Este 8 Oeste 0 1009.5 1.4 85
2019-12-06 20:00:00 12.2 3 Nordeste 5 Sudeste 0 1009.2 1.5 78
2019-12-06 19:00:00 14.2 3 Sudeste 9 Nordeste 0 1008.6 1.1 67
2019-12-06 18:00:00 16.5 9 Nordeste 18 Este 0 1008.1 0.5 56
2019-12-06 17:00:00 19 14 Este 26 Nordeste 0 1007.7 -0.5 46
2019-12-06 16:00:00 19.5 19 Este 28 Este 0 1007.5 -1.5 45
2019-12-06 15:00:00 19.6 17 Este 33 Este 0 1007.6 -2.1 46
2019-12-06 14:00:00 18.5 24 Nordeste 37 Este 0 1008.2 -2.1 48
2019-12-06 13:00:00 17.3 23 Este 35 Este 0 1009 -0.8 54
2019-12-06 12:00:00 15.1 14 Este 22 Este 0 1009.7 0.5 62
2019-12-06 11:00:00 13.8 14 Este 21 Este 0 1010.3 1.8 65
2019-12-06 10:00:00 11.5 9 Este 15 Sudeste 0 1009.8 1.8 73
2019-12-06 09:00:00 8.3 12 Sudeste 17 Este 0 1009.2 1.9 85
2019-12-06 08:00:00 7.9 14 Este 18 Este 0 1008.5 1.3 85
2019-12-06 07:00:00 8.4 13 Este 21 Este 0 1008 0.9 83
2019-12-06 06:00:00 8.9 13 Este 17 Este 0 1007.3 0.3 82
2019-12-06 05:00:00 8.4 9 Este 18 Este 0 1007.2 0.4 84
2019-12-06 04:00:00 8.7 15 Este 21 Este 0 1007.1 -0.1 84
2019-12-06 03:00:00 8.7 9 Este 17 Este 0 1007 -0.2 83
2019-12-06 02:00:00 9.6 11 Este 21 Este 0 1006.8 -0.1 82
2019-12-06 01:00:00 10.2 13 Este 18 Este 0 1007.2 0.8 82
2019-12-06 00:00:00 10.7 11 Este 21 Este 0 1007.2 1.2 81
2019-12-05 23:00:00 11.3 15 Este 22 Este 0 1006.9 1.4 80
2019-12-05 22:00:00 11.4 13 Este 17 Este 0 1006.4 1.6 80
2019-12-05 21:00:00 11.8 12 Este 15 Este 0 1006 -- 79
2019-12-05 20:00:00 11.8 2 Noroeste 9 Nordeste 0 1005.5 1.8 80
2019-12-05 19:00:00 13.3 9 Nordeste -- -- -- 1004.8 1.4 69
2019-12-05 18:00:00 -- -- -- -- -- -- -- -- --
2019-12-05 17:00:00 16.5 14 Este 24 Este 0 1003.7 0 54
2019-12-05 16:00:00 16.9 19 Este 30 Este 0 1003.4 -0.6 52
2019-12-05 15:00:00 17.1 19 Este 30 Este 0 1003.3 -1.2 51
2019-12-05 14:00:00 16.3 18 Nordeste 28 Nordeste 0 1003.7 -0.9 57
2019-12-05 13:00:00 15.8 18 Este 32 Este 0 1004 -0.1 62
2019-12-05 12:00:00 14.8 22 Este 32 Este 0 1004.5 0.9 66
2019-12-05 11:00:00 12.2 2 Este 5 Este 0 1004.6 1.6 81
2019-12-05 10:00:00 9.2 2 Sur 5 Este 0 1004.1 1.9 95
2019-12-05 09:00:00 7.7 3 Sudoeste 5 Sudoeste 0 1003.6 2 94
2019-12-05 08:00:00 7.8 0 Calma 5 Sudoeste 0 1003 1.6 94
2019-12-05 07:00:00 7.9 0 Calma 5 Sudeste 0 1002.2 0.5 93
2019-12-05 06:00:00 8.4 2 Norte 5 Sur 0 1001.6 0.4 92
2019-12-05 05:00:00 9.4 3 Sur 5 Sudeste 0 1001.4 -- 88
2019-12-05 04:00:00 9.7 5 Nordeste 9 Norte 0 1001.7 0.6 85
2019-12-05 03:00:00 9.9 5 Oeste -- -- -- 1001.2 0.6 83
2019-12-05 02:00:00 -- -- -- 9 Sudoeste 0 -- -- --
2019-12-05 01:00:00 10.2 6 Oeste 13 Oeste 0 1001.1 1.4 82
2019-12-05 00:00:00 10.6 10 Sudoeste 18 Sudoeste 0 1000.6 1.1 77
2019-12-04 23:00:00 11.4 11 Sudoeste 15 Sudoeste 0 1000.1 1 92
2019-12-04 22:00:00 11.6 8 Oeste 11 Oeste 0 999.7 1 92
2019-12-04 21:00:00 11.7 6 Oeste 9 Sudoeste 0.2 999.5 1.2 92
2019-12-04 20:00:00 11.9 2 Oeste 9 Oeste 0 999.1 1.4 89
2019-12-04 19:00:00 11.9 7 Noroeste 26 Norte 0.6 998.7 1.4 88
2019-12-04 18:00:00 14.7 5 Oeste 13 Sudoeste 0 998.3 0.8 66
2019-12-04 17:00:00 15.6 10 Sudoeste 18 Sudoeste 0 997.7 -0.5 62
2019-12-04 16:00:00 15.7 7 Oeste 13 Oeste 0 997.3 -1.4 59
2019-12-04 15:00:00 14.8 7 Sudoeste 15 Sudoeste 0 997.5 -2.1 62
2019-12-04 14:00:00 13.9 8 Sudoeste 15 Sur 0 998.2 -2 63
2019-12-04 13:00:00 13.9 6 Este 17 Nordeste 0 998.7 -1.1 62
2019-12-04 12:00:00 12.6 8 Nordeste 17 Este 0 999.6 0 68
2019-12-04 11:00:00 10.9 7 Este 11 Este 0 1000.2 0.7 78
2019-12-04 10:00:00 9.5 3 Oeste 15 Este 0 999.8 0.7 86
2019-12-04 09:00:00 8.9 10 Nordeste 13 Nordeste 0 999.6 0.6 93
2019-12-04 08:00:00 8.9 2 Sudoeste 9 Este 0 999.5 0.1 92
2019-12-04 07:00:00 9.2 10 Nordeste 15 Nordeste 1 999.1 -0.7 90
2019-12-04 06:00:00 9.4 4 Sudeste 8 Sudeste 0 999 -1.2 86
2019-12-04 05:00:00 9.3 4 Sudeste 5 Sudeste 0 999.4 -1.2 89
2019-12-04 04:00:00 9 5 Este 8 Este 0 999.8 -1.2 91
2019-12-04 03:00:00 9.6 4 Este 8 Este 0 1000.2 -0.9 88
2019-12-04 02:00:00 10.5 3 Noroeste 8 Sudeste 0 1000.6 -0.2 84
2019-12-04 01:00:00 11 2 Sudeste 11 Este 0 1001 0.3 82
2019-12-04 00:00:00 11.2 6 Este 13 Este 0 1001.1 0.7 81
2019-12-03 23:00:00 11.5 12 Nordeste 13 Nordeste 0 1000.8 0.9 83
2019-12-03 22:00:00 12.2 11 Este 13 Este 0 1000.7 1.1 82
2019-12-03 21:00:00 -- 8 Este 11 Este 0 1000.4 1.3 --
2019-12-03 20:00:00 13.7 9 Este 11 Este 0 999.9 1 77
2019-12-03 19:00:00 14.8 4 Este 8 Este 0 999.6 0.9 70
2019-12-03 18:00:00 16.3 6 Este 13 Este 0 999.1 0.2 59
2019-12-03 17:00:00 17.1 9 Este 18 Nordeste 0 998.9 -0.3 53
2019-12-03 16:00:00 16.7 13 Nordeste 21 Este 0 998.7 -1.1 55
2019-12-03 15:00:00 16.5 16 Este 32 Este 0 998.9 -1.8 55
2019-12-03 14:00:00 16.3 21 Este 32 Este 0 999.2 -2.1 54
2019-12-03 13:00:00 15.8 18 Nordeste 32 Nordeste 0 999.8 -1.5 57
2019-12-03 12:00:00 16.2 19 Nordeste 30 Este 0 1000.7 -0.2 55
2019-12-03 11:00:00 14.9 9 Este 15 Este 0 1001.3 0.8 63
2019-12-03 10:00:00 12.7 4 Sudeste 13 Sudeste 0 1001.3 1 70
2019-12-03 09:00:00 8.6 5 Sur 9 Noroeste 0 1000.9 0.8 91
2019-12-03 08:00:00 8.2 2 Este 9 Sudeste 0 1000.5 0.1 91
2019-12-03 07:00:00 8.8 0 Calma 9 Este 0 1000.3 -0.7 90
2019-12-03 06:00:00 9.6 0 Calma 13 Oeste 0 1000.1 -1 87
2019-12-03 05:00:00 10.6 2 Nordeste 11 Este 0 1000.4 -1.2 85
2019-12-03 04:00:00 10.7 7 Sur 11 Sudeste 0 1001 -0.9 85
2019-12-03 03:00:00 10.6 8 Este 11 Sudeste 0 1001.1 -1 84
2019-12-03 02:00:00 10.4 4 Este 17 Este 0 1001.6 -0.3 85
2019-12-03 01:00:00 10.6 12 Este 15 Este 0 1001.9 0.3 84
2019-12-03 00:00:00 10.4 10 Este 17 Este 0 1002.1 0.8 84
2019-12-02 23:00:00 10.8 10 Este 17 Este 0 1001.9 1.4 84
2019-12-02 22:00:00 11.3 13 Este 17 Este 0 1001.6 2 83
2019-12-02 21:00:00 11.3 12 Este 15 Este 0 1001.3 2.1 81
2019-12-02 20:00:00 12.8 11 Este 17 Nordeste 0 1000.5 1.7 73
2019-12-02 19:00:00 14.4 15 Nordeste 21 Nordeste 0 999.6 0.9 66
2019-12-02 18:00:00 15.2 11 Nordeste 28 Nordeste 0 999.2 0.8 63
2019-12-02 17:00:00 16.8 18 Nordeste 37 Nordeste 0 998.8 -0.2 54
2019-12-02 16:00:00 17.3 23 Nordeste 37 Nordeste 0 998.7 -1 53
2019-12-02 15:00:00 17.3 26 Nordeste 37 Este 0 998.4 -1.9 56
2019-12-02 14:00:00 16.5 23 Este 35 Este 0 999 -1.2 62
2019-12-02 13:00:00 15.1 23 Este 35 Este 0 999.7 0.1 66
2019-12-02 12:00:00 14.3 22 Este 35 Este 0 1000.3 1.1 73
2019-12-02 11:00:00 13.2 19 Este 30 Este 0 1000.2 1.6 78
2019-12-02 10:00:00 12 14 Este 28 Nordeste 0 999.6 1.3 84
2019-12-02 09:00:00 10 6 Sudeste 15 Este 0 999.2 0.8 95
2019-12-02 08:00:00 9.8 13 Nordeste 26 Este 0 998.6 0.2 93
2019-12-02 07:00:00 10.4 13 Este 22 Nordeste 0.9 998.3 -0.4 94
2019-12-02 06:00:00 10.3 14 Este 21 Este 0 998.4 -0.4 94
2019-12-02 05:00:00 10.2 14 Nordeste 18 Este 0 998.4 -0.6 95
2019-12-02 04:00:00 10 9 Nordeste 15 Este 0.7 998.7 -0.4 95
2019-12-02 03:00:00 10.1 10 Este 15 Este 0.3 998.8 -0.5 95
2019-12-02 02:00:00 10.1 6 Nordeste 13 Este 2.5 999 -0.9 95
2019-12-02 01:00:00 10.1 8 Este 17 Este 2.3 999.1 -0.4 95
2019-12-02 00:00:00 10.2 12 Este 17 Este 3.2 999.3 -0.4 96
2019-12-01 23:00:00 10.3 0 Calma 17 Oeste 4.5 999.9 0 95
2019-12-01 22:00:00 10.4 8 Este 11 Este 2.9 999.5 -0.2 94
2019-12-01 21:00:00 11.1 5 Oeste 18 Sudoeste 1 999.7 -0.2 90
2019-12-01 20:00:00 12.4 12 Sudoeste 24 Sur 4.4 999.9 0.3 92
2019-12-01 19:00:00 12.4 3 Sur 9 Sur 0.1 999.7 -0.4 89
2019-12-01 18:00:00 12.5 5 Sudoeste 18 Sudoeste 0 999.9 -0.7 87
2019-12-01 17:00:00 12.8 16 Sudoeste 24 Oeste 0.8 999.6 -2.2 88
2019-12-01 16:00:00 12.7 9 Sudoeste 17 Sudoeste 3.2 1000.1 -2.6 93
2019-12-01 15:00:00 13 7 Oeste 11 Sudoeste 0.8 1000.6 -3.4 89
2019-12-01 14:00:00 13 3 Oeste 13 Noroeste 0.8 1001.8 -2.8 88
2019-12-01 13:00:00 13.2 6 Oeste 11 Noroeste 0 1002.7 -1.6 88
2019-12-01 12:00:00 12.9 4 Oeste 8 Oeste 0 1004 -0.7 90
2019-12-01 11:00:00 12 5 Noroeste 9 Noroeste 0 1004.6 0 97
2019-12-01 10:00:00 11.4 5 Sudeste 11 Sudeste 0 1004.3 -0.2 97
2019-12-01 09:00:00 10.6 5 Oeste 13 Sudoeste 0 1004.7 0.1 97
2019-12-01 08:00:00 11.1 9 Sudoeste 13 Oeste 0 1004.6 -0.4 96
2019-12-01 07:00:00 11.8 6 Oeste 15 Oeste 0 1004.5 -0.9 96
2019-12-01 06:00:00 12.5 8 Sudoeste 13 Sudoeste 0 1004.6 -1.3 96
2019-12-01 05:00:00 12.8 12 Oeste 21 Oeste 0 1005 -0.9 96
2019-12-01 04:00:00 13.1 14 Oeste 18 Oeste 0 1005.4 -1.1 95
2019-12-01 03:00:00 13.4 10 Oeste 18 Oeste 0 1005.9 -1.1 95
2019-12-01 02:00:00 13.5 8 Sudoeste 15 Sudoeste 1.1 1005.9 -1.6 95
2019-12-01 01:00:00 14 9 Sudoeste 18 Sudoeste 0.4 1006.5 -1.5 92
2019-12-01 00:00:00 14.6 7 Oeste 13 Oeste 0 1007 -1.2 83
2019-11-30 23:00:00 14.3 9 Oeste 15 Oeste 0 1007.5 -0.8 84
2019-11-30 22:00:00 13.5 7 Oeste 9 Oeste 0 1008 -0.2 88
2019-11-30 21:00:00 13.5 7 Sudoeste 8 Oeste 0 1008.2 0.4 85
2019-11-30 20:00:00 14.9 6 Sudoeste 11 Oeste 0 1008.3 0.7 80
2019-11-30 19:00:00 15.6 7 Oeste 24 Oeste 0 1008.2 0.2 76
2019-11-30 18:00:00 17.4 14 Sudoeste 24 Oeste 0 1007.8 -0.8 68
2019-11-30 17:00:00 19 15 Sudoeste 22 Sudoeste 0 1007.6 -1.9 62
2019-11-30 16:00:00 19.5 16 Sudoeste 22 Sudoeste 0 1008 -2.6 60
2019-11-30 15:00:00 19.1 9 Sudoeste 15 Sudoeste 0 1008.6 -2.9 61
2019-11-30 14:00:00 19 5 Sur 13 Sur 0 1009.5 -2.4 59
2019-11-30 13:00:00 17.8 8 Sudeste 13 Este 0 1010.6 -1.3 62
2019-11-30 12:00:00 15.8 8 Este 17 Este 0 1011.5 -0.4 71
2019-11-30 11:00:00 13.7 10 Este 17 Este 0 1011.9 0.2 80
2019-11-30 10:00:00 11.6 5 Este 9 Este 0 1011.9 0.3 91
2019-11-30 09:00:00 8.8 5 Este 8 Nordeste 0 1011.9 0.6 96
2019-11-30 08:00:00 8.6 2 Nordeste -- -- 0 1011.7 0.2 96
2019-11-30 07:00:00 8.6 5 Nordeste 8 Nordeste 0 1011.6 -0.1 96
2019-11-30 06:00:00 8.9 4 Nordeste 8 Nordeste 0 1011.3 -0.4 96
2019-11-30 05:00:00 8.9 0 Calma 4 Sudeste 0 1011.5 -0.4 95
2019-11-30 04:00:00 8.9 0 Calma 4 Este 0 1011.7 0 95
2019-11-30 03:00:00 8.9 0 Calma 2 Sur 0 1011.7 0 94
2019-11-30 02:00:00 9.5 0 Calma 4 Norte 0 1011.9 0 95
2019-11-30 01:00:00 10.1 0 Calma 8 Nordeste 0 1011.7 0.1 93
2019-11-30 00:00:00 11.3 5 Nordeste 9 Este 0 1011.7 -0.1 92
2019-11-29 23:00:00 11.9 4 Este 8 Este 0 1011.9 0.3 90
2019-11-29 22:00:00 12.5 4 Este 5 Este 0 1011.6 0.2 90
2019-11-29 21:00:00 12.8 2 Este 9 Este 0 1011.8 0.7 88
2019-11-29 20:00:00 13.7 9 Este 11 Este 0 1011.6 0.6 85
2019-11-29 19:00:00 14.7 7 Nordeste 8 Nordeste 0 1011.4 0.4 80
2019-11-29 18:00:00 16.8 6 Nordeste 13 Este 0 1011.1 -0.1 69
2019-11-29 17:00:00 18.7 8 Este 15 Este 0 1011 -0.7 60
2019-11-29 16:00:00 19.4 7 Este 13 Este 0 1011 -1.3 57
2019-11-29 15:00:00 18.7 7 Este 15 Nordeste 0 1011.2 -1.9 60
2019-11-29 14:00:00 18 9 Nordeste 17 Este 0 1011.7 -1.3 63
2019-11-29 13:00:00 17.1 9 Este 15 Este 0 1012.3 -0.4 65
2019-11-29 12:00:00 15.6 8 Este 13 Este 0 1013.1 1 73
2019-11-29 11:00:00 13.4 7 Este 11 Este 0 1013 1.2 85
2019-11-29 10:00:00 10.3 2 Norte 5 Nordeste 0 1012.7 1.2 97
2019-11-29 09:00:00 8.2 2 Sudoeste 5 Sur 0 1012.1 0.9 96
2019-11-29 08:00:00 7.7 0 Calma 4 Sudeste 0 1011.8 0.9 96
2019-11-29 07:00:00 8.1 0 Calma 4 Nordeste 0 1011.5 0.9 96
2019-11-29 06:00:00 8.5 0 Calma 4 Noroeste 0 1011.2 0.9 96
2019-11-29 05:00:00 8.7 3 Sudoeste 4 Oeste 0 1010.9 0.7 96
2019-11-29 04:00:00 8.9 0 Calma 4 Noroeste 0 1010.6 0.3 95
2019-11-29 03:00:00 9.5 0 Calma 4 Oeste 0 1010.3 0 95
2019-11-29 02:00:00 10.3 0 Calma -- -- 0 1010.2 -0.2 94
2019-11-29 01:00:00 11.3 3 Norte 4 Norte 0 1010.3 0.2 94
2019-11-29 00:00:00 11.8 3 Nordeste 5 Este 0 1010.3 0.7 94
2019-11-28 23:00:00 12.6 4 Norte 8 Este 0 1010.4 1.1 91
2019-11-28 22:00:00 13.7 -- -- -- -- 0 1010.1 1 89
2019-11-28 21:00:00 14.2 0 Calma 5 Este 0 1009.6 1 87
2019-11-28 20:00:00 14.5 4 Este -- -- 0 1009.3 0.8 85
2019-11-28 19:00:00 14.9 5 Este 11 Nordeste 0 1009.1 0.6 81
2019-11-28 18:00:00 15.7 6 Nordeste 8 Este 0 1008.6 -0.3 77
2019-11-28 17:00:00 16 4 Este 9 Nordeste 0 1008.5 -0.9 74
2019-11-28 16:00:00 16 5 Nordeste 11 Sudeste 0 1008.5 -1.4 75
2019-11-28 15:00:00 15.3 3 Este 8 Sudeste 0 1008.9 -1.8 77
2019-11-28 14:00:00 14.8 3 Nordeste 11 Este 0 1009.4 -1.5 80
2019-11-28 13:00:00 13.9 8 Nordeste 13 Nordeste 0 1009.9 -0.6 85
2019-11-28 12:00:00 13 10 Nordeste 15 Este 0 1010.7 0.9 90
2019-11-28 11:00:00 12.3 9 Este 15 Este 0 1010.9 1.7 96
2019-11-28 10:00:00 11.9 7 Este 9 Este 0 1010.5 2 97
2019-11-28 09:00:00 11.4 3 Nordeste -- -- 0 1009.8 1.4 97
2019-11-28 08:00:00 11.1 4 Norte 8 Noroeste 0 1009.2 1.1 97
2019-11-28 07:00:00 11 3 Noroeste 9 Nordeste 0 1008.5 0.5 97
2019-11-28 06:00:00 10.9 4 Norte 9 Noroeste 0 1008.4 0.8 97
2019-11-28 05:00:00 11.3 5 Norte 9 Sudoeste 0 1008.1 0.6 97
2019-11-28 04:00:00 11.7 3 Oeste 11 Sudoeste 0 1008 0.1 96
2019-11-28 03:00:00 11.8 7 Sudoeste 13 Sudoeste 0 1007.6 0 96
2019-11-28 02:00:00 11.4 3 Oeste 9 Oeste 0 1007.5 0 96
2019-11-28 01:00:00 10.7 4 Oeste 8 Oeste 0 1007.9 0.9 95
2019-11-28 00:00:00 11.3 5 Sudoeste 8 Sudoeste 0 1007.6 0.9 94
2019-11-27 23:00:00 12 0 Calma 5 Oeste 0 1007.5 1.5 93
2019-11-27 22:00:00 12.9 0 Calma 9 Sur 0 1007 1.4 91
2019-11-27 21:00:00 14 6 Oeste 8 Oeste 0 1006.7 2 90
2019-11-27 20:00:00 14.2 8 Sudoeste 11 Sur 0 1006 1.1 88
2019-11-27 19:00:00 15.3 4 Sudoeste -- -- 0 1005.6 1.1 81
2019-11-27 18:00:00 16.8 6 Oeste 24 Oeste 0 1004.7 0.1 73
2019-11-27 17:00:00 18.1 14 Sudoeste 30 Sudoeste 0 1004.9 -0.3 70
2019-11-27 16:00:00 18.2 19 Sudoeste 33 Sudoeste 0 1004.5 -1.5 69
2019-11-27 15:00:00 18.4 16 Sudoeste 30 Oeste 0 1004.6 -2.2 70
2019-11-27 14:00:00 18.1 17 Sudoeste 32 Sudoeste 0 1005.2 -1.6 73
2019-11-27 06:00:00 14.7 9 Oeste 17 Oeste 0 1003.7 0.4 93
2019-11-27 05:00:00 15.2 10 Sudoeste 24 Oeste 0 1003.5 0 92
2019-11-27 04:00:00 15.4 14 Sudoeste 22 Oeste 0 1003.5 -0.2 92
2019-11-27 03:00:00 15.8 14 Oeste 32 Oeste 0 1003.3 -0.8 92
2019-11-27 02:00:00 15.8 19 Sudoeste 41 Sudoeste 0 1003.5 -0.7 92
2019-11-27 01:00:00 15.4 18 Sudoeste 35 Oeste 0.1 1003.7 -0.4 94
2019-11-27 00:00:00 15.8 14 Sudoeste 33 Sudoeste 0 1004.1 0.1 91
2019-11-26 23:00:00 15.9 19 Sudoeste 28 Oeste 0.5 1004.2 0.1 92
2019-11-26 22:00:00 16.1 13 Sudoeste 28 Sudoeste 0 1004.1 0 90
2019-11-26 21:00:00 16.2 14 Sudoeste 26 Sudoeste 0 1004 -0.1 89
2019-11-26 20:00:00 15 0 Calma 4 Sudoeste 0 1004.1 0.1 94
2019-11-26 19:00:00 15.7 5 Sudoeste 15 Oeste 0 1004.1 -0.3 93
2019-11-26 18:00:00 16.1 11 Oeste 18 Oeste 0 1004.1 -0.3 93
2019-11-26 17:00:00 16.2 10 Sudoeste 15 Oeste 0 1004 -1.3 94
2019-11-26 16:00:00 15.9 5 Noroeste 8 Noroeste 0 1004.4 -1.6 93
2019-11-26 15:00:00 16.1 2 Oeste 11 Noroeste 0.1 1004.4 -2.6 90
2019-11-26 14:00:00 16.6 5 Norte 11 Este 0 1005.3 -2 85
2019-11-26 13:00:00 16.5 6 Nordeste 9 Nordeste 0 1006 -1.4 86
2019-11-26 12:00:00 16 3 Nordeste 8 Sudeste 0 1007 -0.3 86
2019-11-26 11:00:00 15.1 4 Sudeste 8 Sur 0 1007.3 0.4 92
2019-11-26 10:00:00 14 0 Calma 4 Norte 0 1007.4 0.9 95
2019-11-26 09:00:00 13.6 2 Sudoeste 4 Sudoeste 0 1007.3 0.5 97
2019-11-26 08:00:00 13.6 2 Norte 8 Noroeste 0 1006.9 0.2 97
2019-11-26 07:00:00 13.6 2 Sudoeste 9 Oeste 0 1006.5 -0.4 97
2019-11-26 06:00:00 13.7 7 Oeste 9 Noroeste 0 1006.8 -0.1 98
2019-11-26 05:00:00 13.8 6 Sudoeste 11 Sudoeste 0 1006.7 -0.7 98
2019-11-26 04:00:00 14 8 Sudoeste 13 Sudoeste 0 1006.9 -0.7 97
2019-11-26 03:00:00 14.4 6 Sur 8 Sur 0 1006.9 -1.3 96
2019-11-26 02:00:00 14.4 0 Calma 8 Norte 0 1007.4 -0.7 96
2019-11-26 01:00:00 14.3 0 Calma 5 Sur 0 1007.6 -0.3 96
2019-11-26 00:00:00 14.5 2 Sudeste 8 Oeste 0 1008.2 0.4 96
2019-11-25 23:00:00 14.3 6 Oeste 8 Oeste 0 1008.1 0.9 96
2019-11-25 22:00:00 14.5 2 Este 8 Norte 0 1007.9 0.7 96
2019-11-25 21:00:00 14.6 4 Norte 5 Norte 0 1007.8 1 95
2019-11-25 20:00:00 14.7 3 Este 5 Este 0 1007.2 0.3 95
2019-11-25 19:00:00 14.7 0 Calma 4 Este 0 1007.2 0.3 94
2019-11-25 18:00:00 14.8 0 Calma 8 Oeste 0 1006.8 -0.3 94
2019-11-25 17:00:00 14.6 4 Sudoeste 8 Sudoeste 0 1006.9 -0.5 94
2019-11-25 16:00:00 14.2 4 Sur 5 Sudoeste 0.3 1006.9 -1 94
2019-11-25 15:00:00 13.9 5 Sudoeste 11 Sur 0.3 1007.1 -1.6 95
2019-11-25 14:00:00 13.4 8 Sur 11 Sur 0 1007.4 -1.4 95
2019-11-25 13:00:00 12.9 8 Sur 11 Sudoeste 0 1007.9 -0.6 95
2019-11-25 12:00:00 12.5 2 Sudoeste 5 Sudoeste 0.5 1008.7 0.6 95
2019-11-25 11:00:00 12.1 2 Sudeste 5 Oeste 0 1008.8 0.7 95
2019-11-25 10:00:00 11.5 4 Oeste 5 Oeste 0.9 1008.5 0.7 95
2019-11-25 09:00:00 11.1 2 Sur 5 Sudoeste 0.4 1008.1 0.7 95
2019-11-25 08:00:00 11.1 3 Sur 5 Sur 0 1008.1 0.2 94
2019-11-25 07:00:00 10.9 4 Este 8 Sudeste 0 1007.8 -0.3 94
2019-11-25 06:00:00 10.8 4 Sudeste 8 Sudeste 0 1007.4 -0.8 93
2019-11-25 05:00:00 10.8 0 Calma 5 Sur 0 1007.9 -0.4 92
2019-11-25 04:00:00 10.9 5 Oeste 8 Oeste 0 1008.1 -0.7 91
2019-11-25 03:00:00 10.7 4 Oeste 8 Oeste 0 1008.2 -1 92
2019-11-25 02:00:00 10.2 4 Sudoeste 8 Oeste 0 1008.3 -0.3 92
2019-11-25 01:00:00 9.5 0 Calma 5 Oeste 0 1008.8 0 91
2019-11-25 00:00:00 9.7 4 Oeste 11 Oeste 0 1009.2 0.7 88
2019-11-24 23:00:00 11 5 Sudoeste 9 Oeste 0 1008.6 0.6 83
2019-11-24 22:00:00 10.8 6 Oeste 9 Oeste 0 1008.8 1.2 85
2019-11-24 21:00:00 11.3 7 Oeste 13 Oeste 0 1008.5 1.4 83
2019-11-24 20:00:00 12.6 9 Oeste 13 Oeste 0 1008 1.2 78
2019-11-24 19:00:00 13.4 8 Oeste 17 Sudoeste 0 1007.6 0.9 75
2019-11-24 18:00:00 14.3 12 Sudoeste 21 Oeste 0 1007.1 0.4 70
2019-11-24 17:00:00 15.7 13 Sudoeste 21 Oeste 0 1006.8 -0.3 63
2019-11-24 16:00:00 15.8 14 Sudoeste 22 Sudoeste 0 1006.7 -1 61
2019-11-24 15:00:00 15 12 Sudoeste 18 Oeste 0 1006.7 -2.1 65
2019-11-24 14:00:00 14.9 9 Sudoeste 18 Sudoeste 0 1007.1 -1.9 63
2019-11-24 13:00:00 14.2 7 Sudoeste 13 Sur 0 1007.7 -1 63
2019-11-24 12:00:00 12.8 3 Norte 15 Oeste 0 1008.8 0.5 69
2019-11-24 11:00:00 10.4 9 Oeste 15 Oeste 0 1009 1.3 81
2019-11-24 10:00:00 8 3 Oeste 5 Oeste 0 1008.7 2.1 90
2019-11-24 09:00:00 5.5 6 Sur 8 Sur 0 1008.3 2.4 95
2019-11-24 08:00:00 4.6 4 Oeste 8 Oeste 0 1007.7 2.3 94
2019-11-24 07:00:00 4.9 4 Norte 8 Nordeste 0 1006.6 1.3 94
2019-11-24 06:00:00 5.9 2 Sur 13 Oeste 0 1005.9 0.8 93
2019-11-24 05:00:00 5.7 3 Sudoeste 11 Sudoeste 0 1005.4 0.3 92
2019-11-24 04:00:00 6.3 8 Sudoeste 11 Oeste 0 1005.3 0.3 91
2019-11-24 03:00:00 7.3 5 Oeste 13 Oeste 0 1005.1 0.7 89
2019-11-24 02:00:00 6.3 4 Este 9 Sudoeste 0 1005.1 0.8 88
2019-11-24 01:00:00 7.6 3 Sudoeste 15 Oeste 0 1005 1 86
2019-11-24 00:00:00 7.9 12 Oeste 18 Oeste 0 1004.4 1.1 86
2019-11-23 23:00:00 9.1 11 Oeste 15 Oeste 0 1004.3 1.6 80
2019-11-23 22:00:00 9.8 14 Oeste 17 Oeste 0 1004 2.3 77
2019-11-23 21:00:00 10.9 12 Oeste 18 Oeste 0 1003.3 2.6 73
2019-11-23 20:00:00 12.4 11 Sudoeste 17 Sudoeste 0 1002.7 3.1 65
2019-11-23 19:00:00 12.9 9 Oeste 18 Oeste 0 1001.7 3.1 64
2019-11-23 18:00:00 14.7 11 Oeste 33 Noroeste 0 1000.7 2.3 57
2019-11-23 17:00:00 15.7 21 Noroeste 37 Oeste 0 999.6 1.2 50
2019-11-23 16:00:00 16.6 26 Oeste 37 Oeste 0 998.6 0.4 48
2019-11-23 15:00:00 16.1 21 Oeste 37 Oeste 0 998.4 0.1 49
2019-11-23 14:00:00 16.3 21 Oeste 39 Oeste 0 998.4 0.5 50
2019-11-23 13:00:00 15.5 24 Oeste 39 Oeste 0 998.2 1.3 53
2019-11-23 12:00:00 14 19 Oeste 32 Noroeste 0 998.3 2.4 63
2019-11-23 11:00:00 12.8 14 Sudoeste 33 Oeste 0 997.9 3.5 78
2019-11-23 10:00:00 12.2 19 Oeste 33 Oeste 0 996.9 3.6 85
2019-11-23 09:00:00 11.2 19 Oeste 30 Sudoeste 0 995.9 2.9 88
2019-11-23 08:00:00 11 10 Oeste 22 Oeste 0 994.4 2 90
2019-11-23 07:00:00 11.8 14 Oeste 26 Oeste 0 993.3 2 84
2019-11-23 06:00:00 12.5 19 Sudoeste 32 Sudoeste 0 993 2.2 85
2019-11-23 05:00:00 12.5 21 Oeste 46 Noroeste 1.7 992.4 1.8 79
2019-11-23 04:00:00 13.1 27 Sudoeste 45 Oeste 0 991.3 0.3 85
2019-11-23 03:00:00 13.2 17 Oeste 33 Sudoeste 0 990.8 0.1 87
2019-11-23 02:00:00 13.1 19 Oeste 32 Sudoeste 0 990.6 0.2 88
2019-11-23 01:00:00 13 12 Oeste 30 Sudoeste 0 991 0.8 90
2019-11-23 00:00:00 13.6 18 Sudoeste 32 Oeste 0 990.7 0.9 87
2019-11-22 23:00:00 13.8 18 Oeste 30 Oeste 0 990.4 2.1 87
2019-11-22 22:00:00 13.3 14 Oeste 26 Oeste 0 990.2 3.2 94
2019-11-22 21:00:00 13.8 14 Oeste 28 Oeste 0 989.8 3.5 94
2019-11-22 20:00:00 14.3 14 Oeste 33 Oeste 0 988.3 2.9 91
2019-11-22 19:00:00 15.3 23 Oeste 42 Oeste 0.1 987 1 90
2019-11-22 18:00:00 16.5 31 Sudoeste 61 Oeste 10.9 986.3 -0.6 96
2019-11-22 17:00:00 16.5 39 Sudoeste 65 Sudoeste 4.2 985.4 -2.7 95
2019-11-22 16:00:00 15.8 27 Sudoeste 68 Sudoeste 3.7 986 -3.8 94
2019-11-22 15:00:00 16.6 38 Sudoeste 58 Sudoeste 2.6 986.9 -4.3 92
2019-11-22 14:00:00 15.9 31 Sudoeste 54 Sudoeste 5.7 988.1 -4.4 93
2019-11-22 13:00:00 16.2 32 Sudoeste 52 Sudoeste 4.6 989.8 -4 92
2019-11-22 12:00:00 15.9 25 Sur 37 Sudoeste 0.3 991.2 -2.9 93
2019-11-22 11:00:00 14.5 4 Sur 13 Sur 0.1 992.5 -1.7 97
2019-11-22 10:00:00 13.1 4 Norte 9 Norte 0.5 993.8 -1.5 97
2019-11-22 09:00:00 12.8 7 Nordeste 9 Nordeste 0 994.1 -1.3 97
2019-11-22 08:00:00 12.6 4 Nordeste 11 Nordeste 0.4 994.2 -1.8 97
2019-11-22 07:00:00 12.3 3 Noroeste 8 Este 0.2 995.3 -1.2 97
2019-11-22 06:00:00 12.3 3 Nordeste 5 Nordeste 0 995.4 -1.4 97
2019-11-22 05:00:00 12.2 3 Nordeste 4 Nordeste 0 996 -1 97
2019-11-22 04:00:00 12.2 2 Sur -- -- 0 996.5 -1.1 97
2019-11-22 03:00:00 12.3 0 Calma 5 Nordeste 0 996.8 -1.1 97
2019-11-22 02:00:00 12.1 0 Calma 8 Nordeste 0.3 997 -1.1 96
2019-11-22 01:00:00 12.6 5 Norte 9 Este 1.2 997.6 -0.7 96
2019-11-22 00:00:00 12.6 4 Este 8 Nordeste 0 997.9 -0.4 96
2019-11-21 23:00:00 12.6 6 Este 8 Este 0 998.1 -0.3 96
2019-11-21 22:00:00 12.7 -- -- -- -- 0 998.3 0.4 96
2019-11-21 21:00:00 12.7 4 Norte 9 Este 0 998.3 0.7 95
2019-11-21 20:00:00 12.8 6 Este 8 Este 0 998.4 0.8 95
2019-11-21 19:00:00 12.9 6 Nordeste 9 Nordeste 0 997.9 0.2 95
2019-11-21 18:00:00 13 6 Nordeste 9 Nordeste 0 997.6 -0.2 95
2019-11-21 17:00:00 13.1 8 Nordeste 11 Nordeste 0 997.6 -0.8 95
2019-11-21 16:00:00 13.1 8 Este 9 Este 0.7 997.7 -1.3 95
2019-11-21 15:00:00 12.9 8 Nordeste 11 Nordeste 2.9 997.8 -2.2 94
2019-11-21 14:00:00 12.9 8 Nordeste 11 Nordeste 0.1 998.4 -1.7 94
2019-11-21 13:00:00 12.1 8 Nordeste 13 Este 0.1 999 -1.1 95
2019-11-21 12:00:00 12 10 Este 13 Este 0.1 1000 0.1 97
2019-11-21 11:00:00 11.3 10 Nordeste 13 Nordeste 0 1000.1 0.4 97
2019-11-21 10:00:00 10.8 6 Este 13 Este 0.7 1000.1 0.6 97
2019-11-21 09:00:00 10.4 5 Este 9 Este 1 999.9 0.4 97
2019-11-21 08:00:00 10.3 8 Nordeste 9 Nordeste 0 999.7 -0.1 97
2019-11-21 07:00:00 10.3 6 Nordeste 8 Nordeste 0 999.5 -0.6 97
2019-11-21 06:00:00 10.1 4 Nordeste 5 Nordeste 0 999.5 -0.8 96
2019-11-21 05:00:00 10.1 2 Este 5 Este 0.6 999.8 -0.6 96
2019-11-21 04:00:00 10 2 Norte -- -- 0 1000.1 -0.7 95
2019-11-21 03:00:00 9.9 0 Calma 4 Norte 0 1000.3 -0.6 95
2019-11-21 02:00:00 9.9 0 Calma 4 Este 0 1000.4 -0.5 95
2019-11-21 01:00:00 9.7 5 Nordeste 8 Nordeste 0 1000.8 0.1 95
2019-11-21 00:00:00 9.7 2 Este 4 Este 0.4 1000.9 0.5 94
2019-11-20 23:00:00 9.7 0 Calma 9 Nordeste 0.1 1000.9 0.9 94
2019-11-20 22:00:00 -- 8 Nordeste 9 Nordeste 0 1000.7 1.1 --
2019-11-20 21:00:00 9.5 2 Este 5 Este 0 1000.4 0.7 94
2019-11-20 20:00:00 9.4 0 Calma 17 Este 0.6 1000 0.5 93
2019-11-20 19:00:00 9.4 7 Este 13 Este 0 999.6 -0.1 92
2019-11-20 18:00:00 9.5 10 Nordeste 18 Este 0.5 999.7 -0.5 90
2019-11-20 17:00:00 9.5 12 Nordeste 17 Nordeste 0 999.5 -1.2 86
2019-11-20 16:00:00 9.1 13 Nordeste 22 Este 0 999.7 -2.3 88
2019-11-20 15:00:00 8.8 13 Nordeste 18 Nordeste 0.1 1000.2 -2.3 91
2019-11-20 14:00:00 8.4 11 Este 17 Nordeste 0 1000.7 -2.6 89
2019-11-20 13:00:00 8.2 9 Este 17 Este 0.2 1002 -1.2 88
2019-11-20 12:00:00 8.2 12 Este 18 Este 0 1002.5 -0.7 85
2019-11-20 11:00:00 7.3 9 Este 18 Este 0 1003.3 0.5 87
2019-11-20 10:00:00 6.2 13 Este 18 Este 0 1003.2 0.6 91
2019-11-20 09:00:00 4.8 5 Este 11 Este 0 1003.2 0.3 95
2019-11-20 08:00:00 4 8 Este 15 Este 0 1002.8 -0.4 95
2019-11-20 07:00:00 4.1 7 Este 15 Este 0 1002.6 -1.2 95
2019-11-20 06:00:00 4.1 9 Este 15 Este 0 1002.9 -1 95
2019-11-20 05:00:00 4.1 6 Este 9 Este 0 1003.2 -1.2 95
2019-11-20 04:00:00 4.3 6 Nordeste 9 Nordeste 0 1003.8 -0.7 94
2019-11-20 03:00:00 5 3 Nordeste 5 Nordeste 0 1003.9 -0.9 94
2019-11-20 02:00:00 5.8 5 Nordeste 8 Este 0 1004.4 -0.8 94
2019-11-20 01:00:00 6.2 5 Este 8 Este 0 1004.5 -1.1 93
2019-11-20 00:00:00 7.2 4 Nordeste 8 Este 0 1004.8 -0.8 91
2019-11-19 23:00:00 7.8 6 Este 9 Este 0 1005.2 -0.4 88
2019-11-19 22:00:00 9 5 Este 8 Este 0 1005.6 0.2 87
2019-11-19 21:00:00 9.2 2 Nordeste 5 Nordeste 0 1005.6 0.4 85
2019-11-19 20:00:00 9.4 3 Nordeste -- -- 0 1005.6 0.3 83
2019-11-19 19:00:00 10.5 3 Nordeste 8 Norte 0 1005.4 -0.4 76
2019-11-19 18:00:00 12.9 3 Norte -- -- 0 1005.2 -1.1 61
2019-11-19 17:00:00 14.3 3 Sur 5 Sur 0 1005.3 -1.8 57
2019-11-19 16:00:00 14 4 Este 13 Este 0 1005.8 -2.1 56
2019-11-19 15:00:00 13.5 6 Este 13 Este 0 1006.3 -2.6 60
2019-11-19 14:00:00 11.6 8 Este 13 Nordeste 0 1007.1 -2.1 66
2019-11-19 13:00:00 10.7 10 Este 18 Este 0 1007.9 -1.5 73
2019-11-19 12:00:00 9.9 13 Este 22 Este 0 1008.9 -0.3 75
2019-11-19 11:00:00 8.2 11 Este 18 Este 0 1009.2 0.4 83
2019-11-19 10:00:00 6.6 8 Este 13 Este 0 1009.4 0.9 94
2019-11-19 09:00:00 3.8 4 Este 5 Este 0 1009.2 1.1 95
2019-11-19 08:00:00 3.5 0 Calma 4 Noroeste 0 1008.8 0.9 95
2019-11-19 07:00:00 3.5 4 Sur 5 Sudoeste 0 1008.5 0.7 95
2019-11-19 06:00:00 3.6 2 Norte 4 Nordeste 0 1008.1 0.4 95
2019-11-19 05:00:00 3.6 0 Calma 8 Nordeste 0 1007.9 -0.3 95
2019-11-19 04:00:00 4 4 Norte 8 Oeste 0 1007.8 -0.6 94
2019-11-19 03:00:00 4.3 4 Este 5 Este 0 1007.7 -0.5 94
2019-11-19 02:00:00 4.6 0 Calma 5 Sur 0 1008.2 0 93
2019-11-19 01:00:00 5.3 3 Este 8 Nordeste 0 1008.4 0.6 93
2019-11-19 00:00:00 5.7 4 Sudeste 8 Sur 0 1008.2 1.1 90
2019-11-18 23:00:00 7.1 6 Sur 11 Oeste 0 1008.2 1.3 88
2019-11-18 22:00:00 8.1 6 Sudoeste 9 Oeste 0 1007.8 1.5 83
2019-11-18 21:00:00 8.4 4 Sudeste 9 Oeste 0 1007.1 1.5 84
2019-11-18 20:00:00 9.7 5 Oeste 9 Sudoeste 0 1006.9 1.7 74
2019-11-18 19:00:00 11.9 8 Norte 13 Norte 0 1006.3 1.5 62
2019-11-18 18:00:00 14.3 10 Norte 15 Norte 0 1005.6 1 50
2019-11-18 17:00:00 15.7 9 Norte 17 Norte 0 1005.2 0.5 46
2019-11-18 16:00:00 16.7 5 Sur 15 Sur 0 1004.8 -0.2 46
2019-11-18 15:00:00 16.8 8 Sur 15 Sur 0 1004.6 -0.6 49
2019-11-18 14:00:00 15.8 6 Sur 15 Sudoeste 0 1004.7 -0.6 52
2019-11-18 13:00:00 14.7 6 Sur 15 Sudeste 0 1005 0.4 59
2019-11-18 12:00:00 13.9 8 Sur 15 Sudoeste 0 1005.2 1.4 65
2019-11-18 11:00:00 12.4 6 Norte 18 Nordeste 0 1005.3 2.2 64
2019-11-18 10:00:00 10.8 9 Oeste 13 Noroeste 0 1004.6 2 71
2019-11-18 09:00:00 8.6 4 Oeste 9 Este 0 1003.8 2.2 80
2019-11-18 08:00:00 8.8 5 Noroeste 28 Oeste 0 1003.1 2.3 76
2019-11-18 07:00:00 8.8 5 Noroeste 15 Sudeste 0 1002.6 2.8 78
2019-11-18 06:00:00 10.3 10 Oeste 26 Noroeste 0 1001.6 1.9 73
2019-11-18 05:00:00 11.6 14 Norte 46 Noroeste 0 1000.8 0.6 73
2019-11-18 04:00:00 12.1 6 Oeste 18 Oeste 0 999.8 -1.2 95
2019-11-18 03:00:00 12.4 12 Oeste 28 Oeste 2.8 999.7 -2.1 96
2019-11-18 02:00:00 12 23 Oeste 33 Oeste 0 1000.2 -2.6 97
2019-11-18 01:00:00 11 15 Oeste 26 Oeste 3 1001 -2.2 97
2019-11-18 00:00:00 10 10 Oeste 15 Oeste 0.9 1001.8 -2 96
2019-11-17 23:00:00 9.4 4 Oeste 5 Oeste 1.7 1002.8 -1.6 96
2019-11-17 22:00:00 9 6 Sudoeste 8 Sudoeste 0 1003.2 -1.7 96
2019-11-17 21:00:00 8.9 3 Sudoeste 8 Oeste 0.4 1003.8 -1.8 96
2019-11-17 20:00:00 8.8 3 Oeste 8 Sudoeste 0.4 1004.4 -1.7 95
2019-11-17 19:00:00 8.7 5 Sur 9 Sur 0.1 1004.9 -1.7 95
2019-11-17 18:00:00 8.5 5 Sur 8 Sudoeste 0 1005.6 -1.6 95
2019-11-17 17:00:00 8.2 5 Sur 11 Sur 0.1 1006.1 -2.1 95
2019-11-17 16:00:00 7.9 7 Sudoeste 11 Sudoeste 0.6 1006.6 -2.4 94
2019-11-17 15:00:00 7.7 7 Oeste 11 Oeste 0 1007.2 -3 94
2019-11-17 14:00:00 7.2 8 Oeste 9 Oeste 0 1008.2 -2.4 93
2019-11-17 13:00:00 6.5 5 Oeste 8 Oeste 0.5 1009 -1.3 93
2019-11-17 12:00:00 6 5 Oeste 11 Noroeste 0.6 1010.2 0.1 92
2019-11-17 11:00:00 5.4 3 Oeste 5 Oeste 0.3 1010.6 1.2 88
2019-11-17 10:00:00 4.8 0 Calma 11 Este 0 1010.3 1.1 86
2019-11-17 09:00:00 3.7 0 Calma 4 Este 0 1010.1 1.2 85
2019-11-17 08:00:00 2.7 3 Sur 5 Sur 0 1009.4 0.4 87
2019-11-17 07:00:00 1.8 0 Calma 5 Sudeste 0 1009.2 0.2 90
2019-11-17 06:00:00 0.5 4 Sudeste 5 Sudeste 0 1008.9 -0.1 90
2019-11-17 05:00:00 0.6 2 Sudeste 5 Sudeste 0 1009 0 88
2019-11-17 04:00:00 1.3 4 Sur 5 Sur 0 1009 -0.1 86
2019-11-17 03:00:00 2.2 4 Sudoeste 8 Sur 0 1009 -0.1 83
2019-11-17 02:00:00 2.1 9 Sur 11 Sur 0 1009 -0.1 83
2019-11-17 01:00:00 2.7 5 Sur -- -- 0 1009.1 0.3 80
2019-11-17 00:00:00 3.5 5 Sudoeste -- -- 0 1009.1 0.7 79
2019-11-16 23:00:00 4.2 3 Noroeste 9 Oeste 0 1009.1 1.1 74
2019-11-16 22:00:00 5.2 2 Sudeste 5 Oeste 0 1008.8 1.3 70
2019-11-16 21:00:00 7 4 Oeste 5 Oeste 0 1008.4 1.5 62
2019-11-16 20:00:00 7.9 5 Sudoeste 11 Sudoeste 0 1008 1.5 60
2019-11-16 19:00:00 10.3 7 Oeste 15 Oeste 0 1007.5 1.4 50
2019-11-16 18:00:00 13.3 13 Oeste 28 Sudoeste 0 1006.9 0.9 40
2019-11-16 17:00:00 14.6 18 Sudoeste 26 Sudoeste 0 1006.5 0.4 35
2019-11-16 16:00:00 14.6 17 Sudoeste 26 Sudoeste 0 1006.1 -0.7 36
2019-11-16 15:00:00 14.3 11 Sur 21 Sudoeste 0 1006 -1.4 36
2019-11-16 14:00:00 13 7 Sudoeste 17 Oeste 0 1006.1 -1.1 41
2019-11-16 13:00:00 11.3 9 Oeste 17 Oeste 0 1006.8 0.2 50
2019-11-16 12:00:00 9.5 7 Sur 13 Sudoeste 0 1007.4 1.9 58
2019-11-16 11:00:00 6.9 2 Este 9 Sudoeste 0 1007.2 2.9 70
2019-11-16 10:00:00 3.3 0 Calma 5 Sudoeste 0 1006.6 3.3 81
2019-11-16 09:00:00 0.3 4 Sudeste 9 Noroeste 0 1005.5 3 91
2019-11-16 08:00:00 -1.6 4 Sur 8 Sur 0 1004.3 2.3 92
2019-11-16 07:00:00 -1.5 0 Calma 9 Oeste 0 1003.3 2.1 91
2019-11-16 06:00:00 -0.9 3 Oeste 8 Sudoeste 0 1002.5 1.6 91
2019-11-16 05:00:00 -0.1 3 Sur 5 Norte 0 1002 1.4 91
2019-11-16 04:00:00 0 2 Sudoeste 8 Oeste 0 1001.2 0.7 89
2019-11-16 03:00:00 0.5 2 Norte 5 Norte 0 1000.9 1.2 87
2019-11-16 02:00:00 1.8 3 Nordeste 11 Norte 0 1000.6 1.3 88
2019-11-16 01:00:00 2.1 3 Norte 9 Sur 0 1000.5 1.6 84
2019-11-16 00:00:00 3.4 4 Sudoeste 15 Norte 0 999.7 1.3 80
2019-11-15 23:00:00 4.6 5 Sudoeste 9 Sur 0 999.3 1.1 77
2019-11-15 22:00:00 5.5 8 Sur 9 Sur 0 998.9 1 75
2019-11-15 21:00:00 6.6 5 Sur 9 Oeste 0 998.4 0.7 71
2019-11-15 20:00:00 8.9 3 Oeste 13 Sudoeste 0 998.2 0.6 61
2019-11-15 19:00:00 10.1 9 Sudoeste 13 Sudoeste 0 997.9 0.4 56
2019-11-15 18:00:00 11.7 10 Oeste 17 Oeste 0 997.7 0.1 47
2019-11-15 17:00:00 11.9 11 Oeste 18 Oeste 0 997.6 -0.1 47
2019-11-15 16:00:00 11.9 12 Oeste 21 Oeste 0 997.5 -0.8 47
2019-11-15 15:00:00 11.2 16 Oeste 24 Oeste 0 997.6 -1.6 48
2019-11-15 14:00:00 11.4 12 Oeste 28 Sudoeste 0 997.7 -1.6 51
2019-11-15 13:00:00 11.4 16 Sudoeste 28 Sudoeste 0 998.3 -1.1 52
2019-11-15 12:00:00 10.3 17 Sudoeste 28 Sudoeste 0 999.2 0 59
2019-11-15 11:00:00 9.2 16 Sudoeste 28 Oeste 0 999.3 0.6 69
2019-11-15 10:00:00 6.8 9 Sudoeste 15 Sudoeste 0 999.4 1 82
2019-11-15 09:00:00 4.8 9 Oeste 15 Oeste 0 999.2 1.1 88
2019-11-15 08:00:00 4.4 9 Oeste 18 Oeste 0 998.7 0.8 89
2019-11-15 07:00:00 4.2 4 Noroeste 11 Noroeste 0 998.4 0.4 87
2019-11-15 06:00:00 5.5 6 Sur 15 Sudoeste 0 998.1 0.1 83
2019-11-15 05:00:00 6 9 Sudoeste 18 Oeste 0 997.9 -0.1 84
2019-11-15 04:00:00 7 12 Sudoeste 22 Sudoeste 0 998 0.1 82
2019-11-15 03:00:00 6.9 11 Oeste 21 Oeste 0 998 -0.3 86
2019-11-15 02:00:00 7.7 12 Oeste 24 Oeste 0 998 -0.1 82
2019-11-15 01:00:00 8 14 Sudoeste 22 Oeste 0 997.9 -0.2 80
2019-11-15 00:00:00 9 8 Oeste 22 Sudoeste 0 998.3 0.4 73
2019-11-14 23:00:00 9.9 13 Sudoeste 21 Oeste 0 998.1 0.3 67
2019-11-14 22:00:00 10.4 9 Oeste 18 Sudoeste 0 998.1 0.4 65
2019-11-14 21:00:00 11.3 9 Sudoeste 21 Oeste 0 997.9 0.5 63
2019-11-14 20:00:00 11.6 12 Oeste 22 Sudoeste 0 997.8 1 61
2019-11-14 19:00:00 12.5 14 Oeste 35 Oeste 0 997.7 1.4 54
2019-11-14 18:00:00 13.9 19 Oeste 54 Noroeste 0 997.4 0.3 43
2019-11-14 17:00:00 15.5 20 Oeste 50 Oeste 0 996.8 -1.3 42
2019-11-14 16:00:00 15.7 21 Oeste 48 Oeste 0 996.3 -2.1 42
2019-11-14 15:00:00 14.4 21 Oeste 37 Oeste 0 997.1 -1.8 62
2019-11-14 14:00:00 12.4 18 Oeste 30 Oeste 0 998.1 -1.3 74
2019-11-14 13:00:00 12.5 24 Oeste 45 Oeste 0 998.4 -1.5 76
2019-11-14 12:00:00 11.4 18 Oeste 30 Oeste 0.6 998.9 -1.7 92
2019-11-14 11:00:00 10.9 18 Oeste 26 Oeste 0 999.4 -1.3 88
2019-11-14 10:00:00 10.3 14 Oeste 22 Oeste 0 999.9 -1.1 87
2019-11-14 09:00:00 9.7 9 Oeste 13 Oeste 0 1000.6 -0.7 87
2019-11-14 08:00:00 9.5 9 Sudoeste 18 Oeste 0 1000.7 -0.8 86
2019-11-14 07:00:00 9.4 9 Oeste 15 Oeste 0 1001 -1 89
2019-11-14 06:00:00 9 8 Oeste 18 Sudoeste 0 1001.3 -1 86
2019-11-14 05:00:00 10 12 Sudoeste 17 Sudoeste 0 1001.5 -1.6 83
2019-11-14 04:00:00 10.1 13 Sudoeste 21 Sudoeste 0 1002 -1.7 88
2019-11-14 03:00:00 10.6 13 Sudoeste 18 Sudoeste 0 1002.3 -1.7 91
2019-11-14 02:00:00 11.3 8 Oeste 13 Oeste 0 1003.1 -0.9 89
2019-11-14 01:00:00 11.9 9 Sudoeste 17 Oeste 0 1003.7 -1 89
2019-11-14 00:00:00 12.3 8 Oeste 17 Oeste 0 1004 0.2 86
2019-11-13 23:00:00 13.2 10 Oeste 17 Sudoeste 0 1004 0.4 81
2019-11-13 22:00:00 14.3 11 Oeste 15 Oeste 0 1004.7 1.1 73
2019-11-13 21:00:00 16 12 Oeste 18 Oeste 0 1003.8 0.6 66
2019-11-13 20:00:00 17.4 10 Sudoeste 15 Sudoeste 0 1003.6 0.5 60
2019-11-13 19:00:00 18.7 10 Oeste 17 Oeste 0 1003.6 0.9 55
2019-11-13 18:00:00 20.2 13 Sudoeste 30 Oeste 0 1003.2 0 52
2019-11-13 17:00:00 21.5 18 Sudoeste 28 Sudoeste 0 1003.1 -0.4 49
2019-11-13 16:00:00 21.5 20 Sudoeste 33 Sudoeste 0 1002.7 -1.5 48
2019-11-13 15:00:00 20.7 19 Sudoeste 33 Oeste 0 1003.2 -1.5 54
2019-11-13 14:00:00 20 21 Sudoeste 41 Oeste 0 1003.5 -1.1 61
2019-11-13 13:00:00 17.4 21 Oeste 35 Sudoeste 0 1004.2 0.1 73
2019-11-13 12:00:00 16.6 19 Sudoeste 35 Oeste 0 1004.7 0.8 75
2019-11-13 11:00:00 15.7 19 Oeste 39 Oeste 0 1004.6 1.5 78
2019-11-13 10:00:00 14.2 21 Oeste 35 Oeste 0 1004.1 1.2 87
2019-11-13 09:00:00 13 13 Oeste 30 Oeste 0 1003.9 1.1 89
2019-11-13 08:00:00 12.7 15 Oeste 28 Oeste 0.1 1003.1 -0.5 89
2019-11-13 07:00:00 13.1 18 Oeste 26 Oeste 0 1002.9 -0.7 81
2019-11-13 06:00:00 13.1 19 Oeste 33 Oeste 0 1002.8 -1.2 78
2019-11-13 05:00:00 13.2 20 Oeste 30 Oeste 0 1003.6 -0.8 74
2019-11-13 04:00:00 12.7 5 Oeste 17 Oeste 0 1003.6 -1.3 68
2019-11-13 03:00:00 12.7 10 Oeste 15 Oeste 0 1004 -1.1 64
2019-11-13 02:00:00 12.6 9 Oeste 17 Oeste 0 1004.4 -1 62
2019-11-13 01:00:00 12.3 9 Oeste 18 Oeste 0 1004.9 -0.3 62
2019-11-13 00:00:00 11 4 Sudoeste 11 Noroeste 0 1005.1 0 66
2019-11-12 23:00:00 10.3 10 Oeste 11 Oeste 0 1005.4 0.6 68
2019-11-12 22:00:00 11.3 6 Sur 17 Sudoeste 0 1005.2 0.5 61
2019-11-12 21:00:00 11.9 12 Noroeste 17 Noroeste 0 1005.1 1 56
2019-11-12 20:00:00 12.9 12 Noroeste 17 Sudoeste 0 1004.8 0.9 52
2019-11-12 19:00:00 14.8 12 Noroeste 17 Noroeste 0 1004.7 0.3 45
2019-11-12 18:00:00 18.1 15 Noroeste 26 Oeste 0 1004.1 -0.6 33
2019-11-12 17:00:00 19.5 14 Sudoeste 24 Oeste 0 1003.9 -1.9 34
2019-11-12 16:00:00 19.2 8 Sur 17 Sudoeste 0 1004.4 -2 43
2019-11-12 15:00:00 18.5 7 Sudoeste 17 Sudoeste 0 1004.7 -2.6 45
2019-11-12 14:00:00 17.5 5 Norte 15 Nordeste 0.6 1005.8 -1.6 46
2019-11-12 13:00:00 16.1 5 Nordeste 11 Sudoeste 0 1006.4 -1.1 57
2019-11-12 12:00:00 14.1 8 Este 13 Este 0 1007.3 0.4 71
2019-11-12 11:00:00 11.8 8 Nordeste 17 Este 0 1007.4 1.4 79
2019-11-12 10:00:00 11.9 6 Este 11 Nordeste 0 1007.5 1.6 81
2019-11-12 09:00:00 9.6 6 Nordeste 9 Nordeste 0 1006.9 1.3 92
2019-11-12 08:00:00 9.4 7 Nordeste 8 Nordeste 0 1006 0.2 90
2019-11-12 07:00:00 10.1 3 Este 8 Este 0 1005.9 -0.2 91
2019-11-12 06:00:00 10.1 3 Este 13 Este 0 1005.6 -1.1 92
2019-11-12 05:00:00 9.7 7 Nordeste 9 Norte 0 1005.8 -0.9 93
2019-11-12 04:00:00 9.8 3 Sudoeste 9 Este 0 1006.1 -0.8 94
2019-11-12 03:00:00 8.9 5 Este 8 Este 0 1006.7 -0.1 94
2019-11-12 02:00:00 8.7 3 Norte 9 Sudeste 0 1006.7 -0.4 94
2019-11-12 01:00:00 8.7 0 Calma 8 Norte 0 1006.9 -0.1 94
2019-11-12 00:00:00 8.9 4 Sudoeste 8 Sudoeste 0 1006.8 0.4 92
2019-11-11 23:00:00 10.2 4 Sur 9 Nordeste 0 1007.1 0.7 91
2019-11-11 22:00:00 10.7 8 Nordeste 9 Nordeste 0 1007 0.8 91
2019-11-11 21:00:00 11.5 0 Calma 8 Nordeste 0 1006.4 0.4 89
2019-11-11 20:00:00 12.6 4 Norte 9 Este 0 1006.4 0.2 87
2019-11-11 19:00:00 14.1 3 Sur 8 Este 0 1006.2 0.2 80
2019-11-11 18:00:00 14.2 2 Norte 15 Norte 0 1006 -0.5 80
2019-11-11 17:00:00 15.3 13 Oeste 21 Oeste 0 1006.2 -0.5 68
2019-11-11 16:00:00 15.3 10 Oeste 17 Oeste 0 1006 -1.9 67
2019-11-11 15:00:00 14.9 10 Oeste 21 Oeste 0 1006.5 -1.9 67
2019-11-11 14:00:00 14.7 12 Sudoeste 17 Sudoeste 0 1006.7 -2.3 66
2019-11-11 13:00:00 14.6 11 Sudoeste 18 Sudoeste 0 1007.9 -1.4 65
2019-11-11 12:00:00 14.4 5 Oeste 15 Oeste 0 1008.4 -0.8 64
2019-11-11 11:00:00 13.8 7 Sudoeste 11 Oeste 0 1009 0.1 65
2019-11-11 10:00:00 12.2 6 Oeste 11 Oeste 0 1009.3 0.7 76
2019-11-11 09:00:00 11.4 3 Sur 9 Sur 0 1009.2 0.6 77
2019-11-11 08:00:00 11.2 7 Sur 11 Sur 0 1008.9 0 76
2019-11-11 07:00:00 11.3 6 Sur 11 Sudoeste 0 1008.6 -0.2 75
2019-11-11 06:00:00 11.9 8 Sur 13 Noroeste 0 1008.6 -0.6 71
2019-11-11 05:00:00 12 10 Noroeste 13 Noroeste 0 1008.9 -0.9 67
2019-11-11 04:00:00 12.9 8 Sudoeste 13 Este 0 1008.8 -0.8 61
2019-11-11 03:00:00 13.5 5 Sudeste 18 Sudeste 0 1009.2 -0.3 56
2019-11-11 02:00:00 13.7 6 Sudeste 48 Norte 0 1009.8 0.3 56
2019-11-11 01:00:00 13.8 14 Norte 30 Este 0 1009.6 0.3 54
2019-11-11 00:00:00 13.4 19 Sudoeste 28 Sur 0 1009.5 -0.3 59